Oostende Airport, Belgium

4:50 AM CET on February 25, 2018 (GMT +0100)
Meteo Oostende | | Change Station

Elev 30 ft 51.22 °N, 2.88 °E | Updated 4 seconds ago

Clear
Clear
28.2 °F
Feels Like 28 °F
N
0.9
Wind Variable Wind from WNW
Gusts 15.0 mph

Today
High -- | Low -- °F
--% Chance of Precip.
Yesterday
High -- | Low -- °F
Precip. -- in
Pressure 30.30 in
Visibility 6.2 miles
Clouds
Windchill 28 °F
Dew Point 18 °F
Humidity 64%
Rainfall 0.00 in
Snow Depth Not available.
7:42 AM 6:21 PM
Waxing Gibbous, 70% visible
METAR EBFN 250325Z AUTO 07010KT 9999 NCD M03/M08 Q1026 BLU
Pressure 30.30 in
Visibility 6.2 miles
Clouds
Windchill 28 °F
Dew Point 18 °F
Humidity 64%
Rainfall 0.00 in
Snow Depth Not available.
7:42 AM 6:21 PM
Waxing Gibbous, 70% visible
METAR EBFN 250325Z AUTO 07010KT 9999 NCD M03/M08 Q1026 BLU

Get Severe Weather Alerts

Thanks for signing up!

Be on the lookout for a verification email in your inbox.

You'll start receiving the daily forecast at 6 AM.

×

10-Day Weather Forecast

×

Almanac

Astronomy

Feb. 25, 2018 Rise Set
Actual Time
Civil Twilight
Nautical Twilight
Astronomical Twilight
Moon
Length of Visible Light
Length of Day
Tomorrow will be .
, % of the Moon is Illuminated

Today's Extremes

Country Highs Country Lows

Community

WunderPhotos

Category 6

Welcome to Category 6. This is the collective home for Weather Underground's featured writeups by Dr. Jeff Masters (right), Bob Henson (left), Chris Burt, and other regular contributors.

Nearby

Air Quality

  Air Quality AQ Index Pollutant
Not available.

Snow Depth

Station Depth Elevation

Earthquake Activity

City Distance Mag. Time & Date
Minimum magnitude displayed is 2.5.

Coastal Water Temperatures

Place Temperature

Stations

Nearby Weather Stations

Station Location Temp. Windchill Dew Point Humidity Wind Precip. Elev Updated Type